This is the latest recevied weather packets stored in our database for station/object HA2SKA-1. If no packets are shown the sender has not sent any weather packets the latest 10 day(s).
| Time | Temp. | Humidity | Pressure | Rain* | Wind** | Luminosity | Snow |
|---|---|---|---|---|---|---|---|
| 1788488411 | 23.33° C | 73% | 1022 hPa | - | - | - | - |
| 1788487511 | 23.33° C | 76% | 1022 hPa | - | - | - | - |
| 1788486611 | 22.78° C | 77% | 1022.1 hPa | - | - | - | - |
| 1788485711 | 23.33° C | 75% | 1022.2 hPa | - | - | - | - |
| 1788484811 | 22.78° C | 75% | 1022.2 hPa | - | - | - | - |
| 1788483911 | 23.33° C | 74% | 1022.3 hPa | - | - | - | - |
| 1788483011 | 23.33° C | 72% | 1022.1 hPa | - | - | - | - |
| 1788482111 | 23.89° C | 69% | 1022 hPa | - | - | - | - |
| 1788481211 | 23.89° C | 69% | 1022 hPa | - | - | - | - |
| 1788480310 | 24.44° C | 67% | 1022 hPa | - | - | - | - |
| 1788479410 | 24.44° C | 66% | 1022 hPa | - | - | - | - |
| 1788478510 | 24.44° C | 65% | 1022.1 hPa | - | - | - | - |
| 1788477610 | 24.44° C | 64% | 1022 hPa | - | - | - | - |
| 1788476710 | 24.44° C | 64% | 1022 hPa | - | - | - | - |
| 1788475810 | 25° C | 62% | 1022.1 hPa | - | - | - | - |
| 1788474910 | 25° C | 61% | 1022 hPa | - | - | - | - |
| 1788474010 | 25.56° C | 60% | 1021.8 hPa | - | - | - | - |
| 1788473110 | 25.56° C | 59% | 1021.7 hPa | - | - | - | - |
| 1788472210 | 25.56° C | 58% | 1021.7 hPa | - | - | - | - |
| 1788471309 | 26.11° C | 57% | 1021.7 hPa | - | - | - | - |
| 1788470409 | 25.56° C | 56% | 1021.6 hPa | - | - | - | - |
| 1788469509 | 26.11° C | 54% | 1021.4 hPa | - | - | - | - |
| 1788468609 | 26.67° C | 52% | 1021.3 hPa | - | - | - | - |
| 1788467709 | 26.11° C | 52% | 1021.2 hPa | - | - | - | - |
| 1788466809 | 25° C | 56% | 1021 hPa | - | - | - | - |
* Rain since midnight (hover to see other rain measurements)
** Current wind speed in m/s (hover to see current wind gust speed)